Time;durP1;ratioP1;P1;durP2;ratioP2;P2;SDS_P1;SDS_P2;PMS_P1;PMS_P2;Temp;Humidity;BMP_temperature;BMP_pressure;BME280_temperature;BME280_humidity;BME280_pressure;Samples;Min_cycle;Max_cycle;Signal;HPM_P1;HPM_P2
2023/05/09 00:01:32;;;;;;;3.58;2.15;;;;;;;;;;5057872;28;20083;-75
2023/05/09 00:03:58;;;;;;;4.50;2.50;;;;;;;;;;5057514;28;20480;-75
2023/05/09 00:06:24;;;;;;;2.70;2.08;;;;;;;;;;5040124;28;20062;-75
2023/05/09 00:08:50;;;;;;;3.10;2.15;;;;;;;;;;5057374;28;20036;-76
2023/05/09 00:11:15;;;;;;;3.50;2.10;;;;;;;;;;5056147;28;20029;-75
2023/05/09 00:13:40;;;;;;;2.97;2.10;;;;;;;;;;5057472;28;20028;-75
2023/05/09 00:16:06;;;;;;;3.17;2.20;;;;;;;;;;5057960;28;20265;-76
2023/05/09 00:18:32;;;;;;;3.85;2.20;;;;;;;;;;5039676;28;20039;-77
2023/05/09 00:20:58;;;;;;;3.15;1.95;;;;;;;;;;5040470;28;20055;-76
2023/05/09 00:23:23;;;;;;;3.70;2.38;;;;;;;;;;5057345;28;20025;-75
2023/05/09 00:25:48;;;;;;;8.63;2.30;;;;;;;;;;5057506;28;20021;-77
2023/05/09 00:28:13;;;;;;;2.95;1.90;;;;;;;;;;5039432;28;20025;-76
2023/05/09 00:30:39;;;;;;;3.75;2.40;;;;;;;;;;5057239;28;20074;-76
2023/05/09 00:33:05;;;;;;;4.17;2.50;;;;;;;;;;5038900;28;20017;-76
2023/05/09 00:35:31;;;;;;;3.78;2.13;;;;;;;;;;5039136;28;20348;-75
2023/05/09 00:37:56;;;;;;;3.20;1.95;;;;;;;;;;5039081;28;20048;-76
2023/05/09 00:40:21;;;;;;;4.38;2.20;;;;;;;;;;5056745;28;20036;-76
2023/05/09 00:42:46;;;;;;;5.78;2.03;;;;;;;;;;5056761;28;20150;-76
2023/05/09 00:45:12;;;;;;;5.07;2.40;;;;;;;;;;5056737;28;20400;-75
2023/05/09 00:47:37;;;;;;;3.93;2.17;;;;;;;;;;5056259;28;20644;-75
2023/05/09 00:50:04;;;;;;;4.55;2.22;;;;;;;;;;5056503;28;20633;-75
2023/05/09 00:52:29;;;;;;;4.97;2.60;;;;;;;;;;5038898;28;20021;-75
2023/05/09 00:54:55;;;;;;;3.95;2.22;;;;;;;;;;5056734;28;20090;-75
2023/05/09 00:57:21;;;;;;;4.88;2.50;;;;;;;;;;5056467;28;20060;-75
2023/05/09 00:59:47;;;;;;;5.18;2.25;;;;;;;;;;5038442;28;20053;-75
2023/05/09 01:02:13;;;;;;;5.90;2.25;;;;;;;;;;5056061;28;20476;-75
2023/05/09 01:04:38;;;;;;;5.05;2.40;;;;;;;;;;5056306;28;20043;-75
2023/05/09 01:07:17;;;;;;;2.55;2.05;;;;;;;;;;5056209;28;20031;-75
2023/05/09 01:10:01;;;;;;;4.97;2.65;;;;;;;;;;5056048;28;20065;-75
2023/05/09 01:12:43;;;;;;;6.55;2.40;;;;;;;;;;5056030;28;20036;-75
2023/05/09 01:15:16;;;;;;;6.05;2.33;;;;;;;;;;5054380;28;20040;-75
2023/05/09 01:17:54;;;;;;;2.97;2.00;;;;;;;;;;5053987;28;20035;-76
2023/05/09 01:20:32;;;;;;;4.05;2.30;;;;;;;;;;5054039;28;20044;-75
2023/05/09 01:23:34;;;;;;;2.90;2.13;;;;;;;;;;5037149;28;20032;-74
2023/05/09 01:26:35;;;;;;;4.10;2.35;;;;;;;;;;5056566;28;20031;-75
2023/05/09 01:29:22;;;;;;;3.15;2.25;;;;;;;;;;5057612;28;20055;-75
2023/05/09 01:31:48;;;;;;;3.25;2.17;;;;;;;;;;5056261;28;20036;-75
2023/05/09 01:34:16;;;;;;;4.32;2.10;;;;;;;;;;5038514;28;20033;-76
2023/05/09 01:36:43;;;;;;;4.25;2.50;;;;;;;;;;5039023;28;20025;-75
2023/05/09 01:39:11;;;;;;;4.80;1.92;;;;;;;;;;5039602;28;20021;-75
2023/05/09 01:41:37;;;;;;;4.72;2.53;;;;;;;;;;5056470;28;20029;-76
2023/05/09 01:44:05;;;;;;;3.22;2.00;;;;;;;;;;5056554;28;20048;-76
2023/05/09 01:46:31;;;;;;;4.95;2.20;;;;;;;;;;5038978;28;20028;-76
2023/05/09 01:48:57;;;;;;;4.03;2.60;;;;;;;;;;5038213;28;20017;-76
2023/05/09 01:51:23;;;;;;;6.18;2.47;;;;;;;;;;5056098;28;20407;-76
2023/05/09 01:53:51;;;;;;;3.72;2.13;;;;;;;;;;5038414;28;20448;-76
2023/05/09 01:56:17;;;;;;;4.65;2.30;;;;;;;;;;5055671;28;20381;-75
2023/05/09 01:58:47;;;;;;;6.25;2.35;;;;;;;;;;5037878;28;20021;-75
2023/05/09 02:01:13;;;;;;;5.18;2.38;;;;;;;;;;5038122;28;20031;-76
2023/05/09 02:03:39;;;;;;;5.35;2.15;;;;;;;;;;5055850;28;20059;-75
2023/05/09 02:06:05;;;;;;;5.22;2.15;;;;;;;;;;5055767;28;20033;-74
2023/05/09 02:08:31;;;;;;;3.35;2.28;;;;;;;;;;5055967;28;20056;-75
2023/05/09 02:10:56;;;;;;;3.83;2.00;;;;;;;;;;5055812;28;20025;-75
2023/05/09 02:13:21;;;;;;;5.32;2.42;;;;;;;;;;5055763;28;20025;-75
2023/05/09 02:15:47;;;;;;;3.40;2.40;;;;;;;;;;5037489;28;20075;-75
2023/05/09 02:18:12;;;;;;;5.70;2.42;;;;;;;;;;5054449;28;20065;-75
2023/05/09 02:20:39;;;;;;;4.22;2.40;;;;;;;;;;5055528;28;20488;-76
2023/05/09 02:23:04;;;;;;;4.93;2.50;;;;;;;;;;5037556;28;20039;-74
2023/05/09 02:25:31;;;;;;;5.00;2.53;;;;;;;;;;5055512;28;20025;-75
2023/05/09 02:27:57;;;;;;;4.63;2.45;;;;;;;;;;5037383;28;20453;-75
2023/05/09 02:30:24;;;;;;;4.03;2.45;;;;;;;;;;5037662;28;20031;-75
2023/05/09 02:32:55;;;;;;;3.40;2.03;;;;;;;;;;5037660;28;20467;-75
2023/05/09 02:35:23;;;;;;;3.60;2.58;;;;;;;;;;5058047;28;20087;-75
2023/05/09 02:37:50;;;;;;;3.65;2.50;;;;;;;;;;5041327;28;20052;-75
2023/05/09 02:40:17;;;;;;;6.90;2.33;;;;;;;;;;5058946;28;20079;-75
2023/05/09 02:42:43;;;;;;;5.75;2.30;;;;;;;;;;5058958;28;20033;-74
2023/05/09 02:45:09;;;;;;;7.97;2.70;;;;;;;;;;5059225;28;20051;-75
2023/05/09 02:47:35;;;;;;;4.00;2.35;;;;;;;;;;5058814;28;20262;-76
2023/05/09 02:50:00;;;;;;;4.22;2.30;;;;;;;;;;5058976;28;20043;-76
2023/05/09 02:52:25;;;;;;;5.28;2.20;;;;;;;;;;5058964;28;20082;-75
2023/05/09 02:54:51;;;;;;;5.28;2.20;;;;;;;;;;5058375;28;20033;-75
2023/05/09 02:57:16;;;;;;;3.87;2.30;;;;;;;;;;5058209;28;20017;-76
2023/05/09 02:59:41;;;;;;;3.10;2.05;;;;;;;;;;5058361;28;20328;-75
2023/05/09 03:02:06;;;;;;;3.28;2.28;;;;;;;;;;5058288;28;20100;-75
2023/05/09 03:04:32;;;;;;;3.70;2.50;;;;;;;;;;5058181;28;20033;-76
2023/05/09 03:06:57;;;;;;;8.73;2.50;;;;;;;;;;5039935;28;20266;-76
2023/05/09 03:09:22;;;;;;;5.00;2.60;;;;;;;;;;5058148;28;20017;-75
2023/05/09 03:11:49;;;;;;;4.67;2.30;;;;;;;;;;5040393;28;20348;-75
2023/05/09 03:14:14;;;;;;;3.17;2.08;;;;;;;;;;5058222;28;20304;-75
2023/05/09 03:16:39;;;;;;;4.38;2.38;;;;;;;;;;5058272;28;20037;-75
2023/05/09 03:19:04;;;;;;;5.70;2.40;;;;;;;;;;5058027;28;20032;-75
2023/05/09 03:21:30;;;;;;;4.03;2.40;;;;;;;;;;5058845;28;20021;-75
2023/05/09 03:23:56;;;;;;;4.10;2.17;;;;;;;;;;5040385;28;20033;-75
2023/05/09 03:26:21;;;;;;;4.45;2.10;;;;;;;;;;5058598;28;20033;-75
2023/05/09 03:28:47;;;;;;;3.92;2.30;;;;;;;;;;5058260;28;20021;-75
2023/05/09 03:31:13;;;;;;;5.05;2.38;;;;;;;;;;5040392;28;20047;-75
2023/05/09 03:33:38;;;;;;;3.72;2.20;;;;;;;;;;5058261;28;20063;-75
2023/05/09 03:36:04;;;;;;;3.73;2.30;;;;;;;;;;5058070;28;20024;-75
2023/05/09 03:38:29;;;;;;;3.15;2.17;;;;;;;;;;5057973;28;20304;-75
2023/05/09 03:40:54;;;;;;;4.47;1.98;;;;;;;;;;5057897;28;20017;-75
2023/05/09 03:43:19;;;;;;;3.85;2.00;;;;;;;;;;5058246;28;20031;-75
2023/05/09 03:45:45;;;;;;;3.60;2.23;;;;;;;;;;5058401;28;20396;-75
2023/05/09 03:48:10;;;;;;;4.05;2.15;;;;;;;;;;5058240;28;20250;-75
2023/05/09 03:50:36;;;;;;;3.75;2.50;;;;;;;;;;5040803;28;20025;-74
2023/05/09 03:53:02;;;;;;;2.80;1.92;;;;;;;;;;5058093;28;20044;-77
2023/05/09 03:55:27;;;;;;;3.10;1.77;;;;;;;;;;5057415;28;20057;-75
2023/05/09 03:57:53;;;;;;;6.17;2.47;;;;;;;;;;5056394;28;20029;-75
2023/05/09 04:00:19;;;;;;;6.18;2.35;;;;;;;;;;5056809;28;20258;-75
2023/05/09 04:02:44;;;;;;;4.97;2.20;;;;;;;;;;5056394;28;20035;-75
2023/05/09 04:05:09;;;;;;;3.25;2.03;;;;;;;;;;5056219;28;20024;-75
2023/05/09 04:07:35;;;;;;;2.65;1.88;;;;;;;;;;5056534;28;20029;-75
2023/05/09 04:10:00;;;;;;;5.15;2.42;;;;;;;;;;5056441;28;20021;-76
2023/05/09 04:12:25;;;;;;;7.03;2.28;;;;;;;;;;5056689;28;20025;-75
2023/05/09 04:14:51;;;;;;;3.63;1.93;;;;;;;;;;5056841;28;20017;-75
2023/05/09 04:17:16;;;;;;;3.63;2.20;;;;;;;;;;5057387;28;20332;-75
2023/05/09 04:19:42;;;;;;;4.97;2.15;;;;;;;;;;5056928;28;20025;-75
2023/05/09 04:22:07;;;;;;;6.40;2.07;;;;;;;;;;5055771;28;20024;-75
2023/05/09 04:24:32;;;;;;;9.77;2.20;;;;;;;;;;5055048;28;20258;-75
2023/05/09 04:26:58;;;;;;;4.07;1.95;;;;;;;;;;5055225;28;20265;-76
2023/05/09 04:29:23;;;;;;;5.15;1.85;;;;;;;;;;5055018;28;20079;-76
2023/05/09 04:31:48;;;;;;;2.53;1.95;;;;;;;;;;5057157;28;20037;-76
2023/05/09 04:34:13;;;;;;;3.25;1.85;;;;;;;;;;5057601;28;20028;-76
2023/05/09 04:36:39;;;;;;;2.75;1.73;;;;;;;;;;5040602;28;20020;-75
2023/05/09 04:39:04;;;;;;;3.92;2.30;;;;;;;;;;5039897;28;20082;-75
2023/05/09 04:41:29;;;;;;;7.75;2.00;;;;;;;;;;5057696;28;20028;-75
2023/05/09 04:43:55;;;;;;;3.40;1.88;;;;;;;;;;5057737;28;20025;-75
2023/05/09 04:46:20;;;;;;;3.30;1.90;;;;;;;;;;5057585;28;20031;-75
2023/05/09 04:48:45;;;;;;;5.78;2.05;;;;;;;;;;5057199;28;20025;-75
2023/05/09 04:51:10;;;;;;;4.32;2.10;;;;;;;;;;5058147;28;20464;-74
2023/05/09 04:53:36;;;;;;;2.90;1.80;;;;;;;;;;5057213;28;20052;-75
2023/05/09 04:56:01;;;;;;;5.68;2.13;;;;;;;;;;5057775;28;20254;-76
2023/05/09 04:58:26;;;;;;;3.88;2.22;;;;;;;;;;5057113;28;20021;-76
2023/05/09 05:00:52;;;;;;;2.70;1.77;;;;;;;;;;5057404;28;20113;-76
2023/05/09 05:03:17;;;;;;;5.57;2.00;;;;;;;;;;5055910;28;20282;-76
2023/05/09 05:05:42;;;;;;;7.43;2.30;;;;;;;;;;5039211;28;20028;-76
2023/05/09 05:08:08;;;;;;;3.15;2.10;;;;;;;;;;5038337;28;20028;-75
2023/05/09 05:10:33;;;;;;;3.08;1.80;;;;;;;;;;5056702;28;20095;-75
2023/05/09 05:12:58;;;;;;;4.05;2.00;;;;;;;;;;5055414;28;20100;-75
2023/05/09 05:15:24;;;;;;;3.17;1.83;;;;;;;;;;5055572;28;20065;-75
2023/05/09 05:17:49;;;;;;;6.18;2.10;;;;;;;;;;5055099;28;20122;-75
2023/05/09 05:20:14;;;;;;;5.57;2.20;;;;;;;;;;5055337;28;20055;-75
2023/05/09 05:22:40;;;;;;;4.82;2.13;;;;;;;;;;5056247;28;20254;-75
2023/05/09 05:25:05;;;;;;;6.35;2.20;;;;;;;;;;5055624;28;20080;-75
2023/05/09 05:27:31;;;;;;;4.38;2.03;;;;;;;;;;5056421;28;20067;-75
2023/05/09 05:29:56;;;;;;;6.05;2.22;;;;;;;;;;5037762;28;20013;-75
2023/05/09 05:32:21;;;;;;;4.93;2.10;;;;;;;;;;5038078;28;20021;-75
2023/05/09 05:34:47;;;;;;;4.70;1.90;;;;;;;;;;5055961;28;20071;-75
2023/05/09 05:37:12;;;;;;;2.63;1.80;;;;;;;;;;5055949;28;20380;-75
2023/05/09 05:39:37;;;;;;;4.90;2.03;;;;;;;;;;5056050;28;20029;-76
2023/05/09 05:42:02;;;;;;;5.30;2.00;;;;;;;;;;5055601;28;20499;-75
2023/05/09 05:44:27;;;;;;;4.83;2.17;;;;;;;;;;5056156;28;20689;-75
2023/05/09 05:46:53;;;;;;;3.65;2.00;;;;;;;;;;5055678;28;20680;-75
2023/05/09 05:49:18;;;;;;;4.35;2.00;;;;;;;;;;5054773;28;20028;-75
2023/05/09 05:51:43;;;;;;;4.17;2.10;;;;;;;;;;5037351;28;20040;-75
2023/05/09 05:54:08;;;;;;;3.93;2.30;;;;;;;;;;5055115;28;20270;-75
2023/05/09 05:56:34;;;;;;;3.95;1.88;;;;;;;;;;5055065;28;20261;-76
2023/05/09 05:58:59;;;;;;;4.55;1.90;;;;;;;;;;5055114;28;20467;-76
2023/05/09 06:01:24;;;;;;;2.72;1.95;;;;;;;;;;5036735;28;20021;-76
2023/05/09 06:03:53;;;;;;;3.92;2.10;;;;;;;;;;5054697;28;20044;-76
2023/05/09 06:06:20;;;;;;;3.78;2.05;;;;;;;;;;5055195;28;20032;-76
2023/05/09 06:08:46;;;;;;;3.63;2.08;;;;;;;;;;5036451;28;20023;-76
2023/05/09 06:11:11;;;;;;;5.88;2.13;;;;;;;;;;5058318;28;20103;-76
2023/05/09 06:13:36;;;;;;;3.90;2.00;;;;;;;;;;5058617;28;20052;-76
2023/05/09 06:16:02;;;;;;;6.33;1.93;;;;;;;;;;5059525;28;20261;-76
2023/05/09 06:18:27;;;;;;;4.13;2.00;;;;;;;;;;5040939;28;20649;-77
2023/05/09 06:20:53;;;;;;;2.60;1.75;;;;;;;;;;5058842;28;20021;-76
2023/05/09 06:23:21;;;;;;;6.00;2.00;;;;;;;;;;5039878;28;20052;-75
2023/05/09 06:25:46;;;;;;;3.90;1.60;;;;;;;;;;5039459;28;20312;-76
2023/05/09 06:28:11;;;;;;;5.80;1.92;;;;;;;;;;5057575;28;20021;-75
2023/05/09 06:30:36;;;;;;;6.93;1.93;;;;;;;;;;5057279;28;20028;-74
2023/05/09 06:33:02;;;;;;;2.73;1.90;;;;;;;;;;5057959;28;20261;-75
2023/05/09 06:35:27;;;;;;;5.40;1.80;;;;;;;;;;5058987;28;20258;-75
2023/05/09 06:37:52;;;;;;;4.10;2.10;;;;;;;;;;5059216;28;20262;-76
2023/05/09 06:40:18;;;;;;;3.50;2.08;;;;;;;;;;5059157;28;20264;-75
2023/05/09 06:42:44;;;;;;;3.08;1.90;;;;;;;;;;5058832;28;20291;-75
2023/05/09 06:45:09;;;;;;;5.53;2.00;;;;;;;;;;5040201;28;20492;-76
2023/05/09 06:47:35;;;;;;;5.20;1.92;;;;;;;;;;5040878;28;20016;-76
2023/05/09 06:50:00;;;;;;;5.20;1.90;;;;;;;;;;5058889;28;20032;-76
2023/05/09 06:52:25;;;;;;;2.13;1.40;;;;;;;;;;5059584;28;20025;-76
2023/05/09 06:54:50;;;;;;;3.70;1.90;;;;;;;;;;5057949;28;20266;-76
2023/05/09 06:57:16;;;;;;;3.77;1.90;;;;;;;;;;5058115;28;20273;-76
2023/05/09 06:59:43;;;;;;;3.50;2.15;;;;;;;;;;5040475;28;20278;-76
2023/05/09 07:02:08;;;;;;;4.45;2.17;;;;;;;;;;5058339;28;20044;-75
2023/05/09 07:04:34;;;;;;;4.75;2.42;;;;;;;;;;5057274;28;20021;-76
2023/05/09 07:06:59;;;;;;;3.58;2.05;;;;;;;;;;5057502;28;20059;-75
2023/05/09 07:09:27;;;;;;;4.00;1.92;;;;;;;;;;5057372;28;20400;-75
2023/05/09 07:11:53;;;;;;;4.82;2.05;;;;;;;;;;5057837;28;20553;-75
2023/05/09 07:14:19;;;;;;;3.42;1.73;;;;;;;;;;5039506;28;20079;-73
2023/05/09 07:16:45;;;;;;;4.72;2.15;;;;;;;;;;5057650;28;20032;-75
2023/05/09 07:19:10;;;;;;;6.40;2.17;;;;;;;;;;5057579;28;20112;-74
2023/05/09 07:21:35;;;;;;;3.33;2.20;;;;;;;;;;5057475;28;20060;-75
2023/05/09 07:24:01;;;;;;;3.70;1.90;;;;;;;;;;5056970;28;20021;-75
2023/05/09 07:26:26;;;;;;;2.90;1.95;;;;;;;;;;5057331;28;20307;-74
2023/05/09 07:28:51;;;;;;;3.53;1.95;;;;;;;;;;5057467;28;20029;-77
2023/05/09 07:31:17;;;;;;;3.37;2.03;;;;;;;;;;5039417;28;20717;-73
2023/05/09 07:33:42;;;;;;;3.58;2.00;;;;;;;;;;5056658;28;20749;-74
2023/05/09 07:36:11;;;;;;;3.27;1.83;;;;;;;;;;5057169;28;20079;-76
2023/05/09 07:38:37;;;;;;;4.55;2.20;;;;;;;;;;5057185;28;20274;-74
2023/05/09 07:41:02;;;;;;;3.35;2.10;;;;;;;;;;5056108;28;20055;-74
2023/05/09 07:43:27;;;;;;;3.20;1.77;;;;;;;;;;5054781;28;20373;-74
2023/05/09 07:45:52;;;;;;;3.33;2.10;;;;;;;;;;5038346;28;20289;-74
2023/05/09 07:48:18;;;;;;;4.70;2.20;;;;;;;;;;5056668;28;20273;-74
2023/05/09 07:50:43;;;;;;;3.95;1.90;;;;;;;;;;5056970;28;20254;-75
2023/05/09 07:53:08;;;;;;;6.00;2.20;;;;;;;;;;5057005;28;20028;-75
2023/05/09 07:55:34;;;;;;;5.40;2.20;;;;;;;;;;5057231;28;20385;-75
2023/05/09 07:57:59;;;;;;;3.55;2.00;;;;;;;;;;5038431;28;20032;-75
2023/05/09 08:00:24;;;;;;;4.03;1.85;;;;;;;;;;5056980;28;20074;-74
2023/05/09 08:02:50;;;;;;;4.85;1.88;;;;;;;;;;5056427;28;20033;-75
2023/05/09 08:05:16;;;;;;;2.53;1.77;;;;;;;;;;5056983;28;20037;-74
2023/05/09 08:07:41;;;;;;;3.63;1.83;;;;;;;;;;5038863;28;20029;-74
2023/05/09 08:10:07;;;;;;;6.77;1.90;;;;;;;;;;5056645;28;20032;-74
2023/05/09 08:12:33;;;;;;;4.03;1.77;;;;;;;;;;5056675;28;20806;-74
2023/05/09 08:14:58;;;;;;;2.80;1.87;;;;;;;;;;5056870;28;20024;-74
2023/05/09 08:17:23;;;;;;;6.73;1.80;;;;;;;;;;5039168;28;20322;-74
2023/05/09 08:19:48;;;;;;;3.47;2.40;;;;;;;;;;5055982;28;20372;-74
2023/05/09 08:22:18;;;;;;;2.93;2.10;;;;;;;;;;5056408;28;20293;-74
2023/05/09 08:24:44;;;;;;;3.08;1.67;;;;;;;;;;5038723;28;20344;-74
2023/05/09 08:27:09;;;;;;;3.70;1.65;;;;;;;;;;5038148;28;20100;-74
2023/05/09 08:29:34;;;;;;;11.63;1.90;;;;;;;;;;5056852;28;20118;-77
2023/05/09 08:32:00;;;;;;;4.33;1.80;;;;;;;;;;5054816;28;20312;-77
2023/05/09 08:34:25;;;;;;;2.67;1.90;;;;;;;;;;5054518;28;20261;-77
2023/05/09 08:36:51;;;;;;;2.88;1.60;;;;;;;;;;5054609;28;20059;-77
2023/05/09 08:39:17;;;;;;;3.10;1.80;;;;;;;;;;5053989;28;20021;-76
2023/05/09 08:41:43;;;;;;;8.48;1.90;;;;;;;;;;5055420;28;20377;-76
2023/05/09 08:44:09;;;;;;;3.03;1.80;;;;;;;;;;5038931;28;20035;-77
2023/05/09 08:46:37;;;;;;;2.83;1.60;;;;;;;;;;5055311;28;20032;-76
2023/05/09 08:49:06;;;;;;;6.60;1.70;;;;;;;;;;5056518;28;20025;-76
2023/05/09 08:51:31;;;;;;;3.97;1.80;;;;;;;;;;5056225;28;20028;-78
2023/05/09 08:53:57;;;;;;;2.88;1.80;;;;;;;;;;5056236;28;20026;-77
2023/05/09 08:56:23;;;;;;;6.97;2.42;;;;;;;;;;5038418;28;20021;-77
2023/05/09 08:58:48;;;;;;;6.60;2.05;;;;;;;;;;5053919;28;20032;-77
2023/05/09 09:01:16;;;;;;;2.42;1.70;;;;;;;;;;5055132;28;20029;-77
2023/05/09 09:03:46;;;;;;;5.85;2.17;;;;;;;;;;5057644;28;20060;-77
2023/05/09 09:06:12;;;;;;;2.55;1.58;;;;;;;;;;5039444;28;20072;-77
2023/05/09 09:08:37;;;;;;;3.63;2.00;;;;;;;;;;5056346;28;20431;-77
2023/05/09 09:11:03;;;;;;;5.35;2.00;;;;;;;;;;5037773;28;20025;-77
2023/05/09 09:13:29;;;;;;;5.88;2.40;;;;;;;;;;5055876;28;20025;-76
2023/05/09 09:15:56;;;;;;;4.32;1.98;;;;;;;;;;5056693;28;20031;-76
2023/05/09 09:18:22;;;;;;;5.18;1.77;;;;;;;;;;5057036;28;20495;-76
2023/05/09 09:20:55;;;;;;;3.30;1.65;;;;;;;;;;5057337;28;20057;-76
2023/05/09 09:23:24;;;;;;;3.58;1.67;;;;;;;;;;5056046;28;20425;-75
2023/05/09 09:25:57;;;;;;;6.20;1.83;;;;;;;;;;5055936;28;20109;-76
2023/05/09 09:28:22;;;;;;;2.95;1.98;;;;;;;;;;5042781;28;20042;-77
2023/05/09 09:30:47;;;;;;;3.75;1.70;;;;;;;;;;5057529;28;20370;-75
2023/05/09 09:33:24;;;;;;;4.18;1.80;;;;;;;;;;5055745;28;20025;-77
2023/05/09 09:35:51;;;;;;;5.25;1.70;;;;;;;;;;5039645;28;20029;-77
2023/05/09 09:38:20;;;;;;;3.72;2.00;;;;;;;;;;5056197;28;20025;-81
2023/05/09 09:40:55;;;;;;;3.28;1.95;;;;;;;;;;5055628;28;20024;-78
2023/05/09 09:43:30;;;;;;;4.28;2.00;;;;;;;;;;5035276;28;20082;-75
2023/05/09 09:45:59;;;;;;;3.35;1.63;;;;;;;;;;5051879;28;20076;-76
2023/05/09 09:48:32;;;;;;;3.67;1.85;;;;;;;;;;5053594;28;20024;-75
2023/05/09 09:51:09;;;;;;;7.22;1.90;;;;;;;;;;5036421;28;20484;-75
2023/05/09 09:53:42;;;;;;;5.65;1.75;;;;;;;;;;5036435;28;20037;-76
2023/05/09 09:56:08;;;;;;;2.83;1.90;;;;;;;;;;5054854;28;20538;-75
2023/05/09 09:58:33;;;;;;;2.60;1.77;;;;;;;;;;5055031;28;20025;-76
2023/05/09 10:01:10;;;;;;;6.07;1.92;;;;;;;;;;5036925;28;20047;-77
2023/05/09 10:03:40;;;;;;;3.75;1.80;;;;;;;;;;5054781;28;20048;-75
2023/05/09 10:06:09;;;;;;;6.22;1.80;;;;;;;;;;5054905;28;20043;-75
2023/05/09 10:08:35;;;;;;;3.92;1.70;;;;;;;;;;5055966;28;20021;-76
2023/05/09 10:11:00;;;;;;;1.83;1.25;;;;;;;;;;5037278;28;20142;-77
2023/05/09 10:13:27;;;;;;;2.47;1.65;;;;;;;;;;5055367;28;20021;-76
2023/05/09 10:15:53;;;;;;;3.80;1.80;;;;;;;;;;5055047;28;20090;-76
2023/05/09 10:18:23;;;;;;;4.00;1.77;;;;;;;;;;5054925;28;20025;-75
2023/05/09 10:20:49;;;;;;;4.50;1.60;;;;;;;;;;5055558;28;20020;-75
2023/05/09 10:23:15;;;;;;;4.18;1.60;;;;;;;;;;5036770;28;20028;-75
2023/05/09 10:25:53;;;;;;;2.70;1.63;;;;;;;;;;5054736;28;20056;-77
2023/05/09 10:28:22;;;;;;;3.05;1.88;;;;;;;;;;5037983;28;20021;-76
2023/05/09 10:30:56;;;;;;;5.10;1.90;;;;;;;;;;5055450;28;20029;-76
2023/05/09 10:33:29;;;;;;;3.17;1.77;;;;;;;;;;5055862;28;20021;-76
2023/05/09 10:35:57;;;;;;;5.22;1.92;;;;;;;;;;5055639;28;20027;-76
2023/05/09 10:38:24;;;;;;;4.88;1.73;;;;;;;;;;5054849;28;20029;-75
2023/05/09 10:40:49;;;;;;;2.50;1.48;;;;;;;;;;5054245;28;20108;-76
2023/05/09 10:43:15;;;;;;;1.95;1.50;;;;;;;;;;5054641;28;20067;-75
2023/05/09 10:45:41;;;;;;;5.22;1.92;;;;;;;;;;5054120;28;20033;-76
2023/05/09 10:48:07;;;;;;;5.32;1.70;;;;;;;;;;5036055;28;20021;-75
2023/05/09 10:50:35;;;;;;;3.00;1.80;;;;;;;;;;5054776;28;20126;-76
2023/05/09 10:53:05;;;;;;;4.50;1.60;;;;;;;;;;5036954;28;20036;-76
2023/05/09 10:55:36;;;;;;;2.63;1.70;;;;;;;;;;5055715;28;20039;-76
2023/05/09 10:58:18;;;;;;;3.03;1.55;;;;;;;;;;5040928;28;20506;-77
2023/05/09 11:00:44;;;;;;;2.78;1.45;;;;;;;;;;5059135;28;20025;-76
2023/05/09 11:03:09;;;;;;;3.60;1.80;;;;;;;;;;5058285;28;20078;-75
2023/05/09 11:05:38;;;;;;;4.60;1.70;;;;;;;;;;5057838;28;20492;-75
2023/05/09 11:08:26;;;;;;;3.50;1.67;;;;;;;;;;5057379;28;20037;-76
2023/05/09 11:11:05;;;;;;;5.63;1.77;;;;;;;;;;5057117;28;20024;-76
2023/05/09 11:13:35;;;;;;;2.15;1.60;;;;;;;;;;5057258;28;20112;-75
2023/05/09 11:16:00;;;;;;;2.80;1.33;;;;;;;;;;5039691;28;20051;-75
2023/05/09 11:18:26;;;;;;;4.15;1.60;;;;;;;;;;5057286;28;20033;-76
2023/05/09 11:20:52;;;;;;;4.85;1.60;;;;;;;;;;5057374;28;20033;-76
2023/05/09 11:23:28;;;;;;;4.50;1.90;;;;;;;;;;5039786;28;20039;-75
2023/05/09 11:26:03;;;;;;;2.72;1.58;;;;;;;;;;5057884;28;20033;-76
2023/05/09 11:28:31;;;;;;;2.22;1.60;;;;;;;;;;5057350;28;20485;-76
2023/05/09 11:31:13;;;;;;;3.55;1.77;;;;;;;;;;5039366;28;20456;-77
2023/05/09 11:33:40;;;;;;;5.13;1.55;;;;;;;;;;5056984;28;20029;-76
2023/05/09 11:36:24;;;;;;;3.15;1.65;;;;;;;;;;5038381;28;20534;-75
2023/05/09 11:38:59;;;;;;;1.95;1.33;;;;;;;;;;5056895;28;20384;-76
2023/05/09 11:41:26;;;;;;;2.05;1.50;;;;;;;;;;5057152;28;20029;-76
2023/05/09 11:43:51;;;;;;;6.82;1.55;;;;;;;;;;5039881;28;20116;-75
2023/05/09 11:46:16;;;;;;;4.13;1.80;;;;;;;;;;5039427;28;20053;-76
2023/05/09 11:48:41;;;;;;;3.63;1.70;;;;;;;;;;5039434;28;20028;-76
2023/05/09 11:51:15;;;;;;;3.58;1.50;;;;;;;;;;5057506;28;20531;-77
2023/05/09 11:53:45;;;;;;;2.15;1.52;;;;;;;;;;5039255;28;20032;-77
2023/05/09 11:56:11;;;;;;;2.22;1.42;;;;;;;;;;5057610;28;20112;-77
2023/05/09 11:58:37;;;;;;;3.33;1.42;;;;;;;;;;5057972;28;20052;-76
2023/05/09 12:01:02;;;;;;;3.75;1.65;;;;;;;;;;5057428;28;20029;-76
2023/05/09 12:03:28;;;;;;;5.20;1.70;;;;;;;;;;5057547;28;20021;-77
2023/05/09 12:05:53;;;;;;;2.60;1.70;;;;;;;;;;5057190;28;20043;-76
2023/05/09 12:08:21;;;;;;;2.83;1.60;;;;;;;;;;5055906;28;20013;-76
2023/05/09 12:10:46;;;;;;;5.47;1.60;;;;;;;;;;5039641;28;20017;-76
2023/05/09 12:13:12;;;;;;;2.47;1.50;;;;;;;;;;5056241;28;20559;-76
2023/05/09 12:15:37;;;;;;;3.50;1.63;;;;;;;;;;5038830;28;20060;-76
2023/05/09 12:18:05;;;;;;;4.80;1.60;;;;;;;;;;5038946;28;20040;-76
2023/05/09 12:20:41;;;;;;;2.92;1.88;;;;;;;;;;5056819;28;20403;-77
2023/05/09 12:23:08;;;;;;;1.42;1.30;;;;;;;;;;5039147;28;20028;-76
2023/05/09 12:25:33;;;;;;;5.65;1.55;;;;;;;;;;5056463;28;20025;-77
2023/05/09 12:27:59;;;;;;;2.23;1.60;;;;;;;;;;5056303;28;20094;-77
2023/05/09 12:30:24;;;;;;;2.65;1.63;;;;;;;;;;5056622;28;20336;-77
2023/05/09 12:32:49;;;;;;;3.80;1.60;;;;;;;;;;5056293;28;20036;-76
2023/05/09 12:35:15;;;;;;;1.42;1.27;;;;;;;;;;5038791;28;20266;-76
2023/05/09 12:37:53;;;;;;;4.35;1.70;;;;;;;;;;5055688;28;20061;-76
2023/05/09 12:40:19;;;;;;;7.32;1.65;;;;;;;;;;5056265;28;20033;-76
2023/05/09 12:42:44;;;;;;;4.73;1.33;;;;;;;;;;5055762;28;20476;-76
2023/05/09 12:45:11;;;;;;;2.92;1.67;;;;;;;;;;5055766;28;20775;-77
2023/05/09 12:47:44;;;;;;;1.70;1.50;;;;;;;;;;5037856;28;20025;-76
2023/05/09 12:50:11;;;;;;;2.57;1.60;;;;;;;;;;5056236;28;20013;-76
2023/05/09 12:52:41;;;;;;;2.22;1.50;;;;;;;;;;5056295;28;20029;-77
2023/05/09 12:55:11;;;;;;;5.85;1.60;;;;;;;;;;5037773;28;20550;-76
2023/05/09 12:57:37;;;;;;;5.07;2.00;;;;;;;;;;5056462;28;20034;-75
2023/05/09 13:00:05;;;;;;;3.35;1.58;;;;;;;;;;5038652;28;20040;-77
2023/05/09 13:02:35;;;;;;;2.90;1.63;;;;;;;;;;5038189;28;20174;-77
2023/05/09 13:05:11;;;;;;;6.03;1.60;;;;;;;;;;5038210;28;20488;-77
2023/05/09 13:07:44;;;;;;;1.92;1.40;;;;;;;;;;5056042;28;20039;-76
2023/05/09 13:10:11;;;;;;;6.68;1.70;;;;;;;;;;5055899;28;20140;-77
2023/05/09 13:12:37;;;;;;;5.80;1.85;;;;;;;;;;5038376;28;20032;-76
2023/05/09 13:15:03;;;;;;;4.95;1.80;;;;;;;;;;5056097;28;20033;-76
2023/05/09 13:17:28;;;;;;;2.30;1.60;;;;;;;;;;5055424;28;20049;-76
2023/05/09 13:19:53;;;;;;;5.40;1.70;;;;;;;;;;5055069;28;20029;-76
2023/05/09 13:22:19;;;;;;;3.63;1.63;;;;;;;;;;5054459;28;20353;-76
2023/05/09 13:24:45;;;;;;;5.53;1.80;;;;;;;;;;5054555;28;20727;-76
2023/05/09 13:27:12;;;;;;;3.67;1.70;;;;;;;;;;5054740;28;20029;-75
2023/05/09 13:29:37;;;;;;;3.97;1.65;;;;;;;;;;5054767;28;20048;-77
2023/05/09 13:32:02;;;;;;;5.27;1.67;;;;;;;;;;5036688;28;20496;-76
2023/05/09 13:34:27;;;;;;;3.07;1.60;;;;;;;;;;5055017;28;20265;-76
2023/05/09 13:36:52;;;;;;;2.22;1.77;;;;;;;;;;5055408;28;20258;-77
2023/05/09 13:39:18;;;;;;;2.83;1.70;;;;;;;;;;5054920;28;20098;-77
2023/05/09 13:41:43;;;;;;;3.10;1.70;;;;;;;;;;5055194;28;20345;-76
2023/05/09 13:44:08;;;;;;;5.20;1.93;;;;;;;;;;5055153;28;20324;-76
2023/05/09 13:46:33;;;;;;;3.50;1.70;;;;;;;;;;5055388;28;20632;-76
2023/05/09 13:48:59;;;;;;;2.50;1.70;;;;;;;;;;5056138;28;20598;-76
2023/05/09 13:51:24;;;;;;;5.28;1.65;;;;;;;;;;5056048;28;20133;-76
2023/05/09 13:53:50;;;;;;;3.10;1.60;;;;;;;;;;5055544;28;20396;-76
2023/05/09 13:56:15;;;;;;;2.67;1.80;;;;;;;;;;5055265;28;20537;-76
2023/05/09 13:58:40;;;;;;;8.53;2.10;;;;;;;;;;5054946;28;20025;-76
2023/05/09 14:01:06;;;;;;;6.00;1.93;;;;;;;;;;5054998;28;20321;-76
2023/05/09 14:03:31;;;;;;;4.50;1.80;;;;;;;;;;5053827;28;20756;-77
2023/05/09 14:05:56;;;;;;;3.05;1.70;;;;;;;;;;5054459;28;20052;-76
2023/05/09 14:08:22;;;;;;;3.33;1.90;;;;;;;;;;5055385;28;20401;-76
2023/05/09 14:10:47;;;;;;;3.50;1.70;;;;;;;;;;5054691;28;20025;-77
2023/05/09 14:13:14;;;;;;;3.28;2.00;;;;;;;;;;5054601;28;20078;-76
2023/05/09 14:15:39;;;;;;;3.63;1.90;;;;;;;;;;5054755;28;20419;-76
2023/05/09 14:18:04;;;;;;;6.45;2.10;;;;;;;;;;5053790;28;20029;-75
2023/05/09 14:20:30;;;;;;;5.85;2.08;;;;;;;;;;5054717;28;20052;-76
2023/05/09 14:22:58;;;;;;;4.80;1.97;;;;;;;;;;5054828;28;20116;-76
2023/05/09 14:25:23;;;;;;;4.70;1.80;;;;;;;;;;5054309;28;20265;-76
2023/05/09 14:27:49;;;;;;;3.47;2.00;;;;;;;;;;5037401;28;20037;-77
2023/05/09 14:30:14;;;;;;;6.83;1.80;;;;;;;;;;5055116;28;20029;-76
2023/05/09 14:32:39;;;;;;;2.88;1.70;;;;;;;;;;5058196;28;20302;-76
2023/05/09 14:35:05;;;;;;;7.30;1.90;;;;;;;;;;5058265;28;20380;-76
2023/05/09 14:37:30;;;;;;;2.22;1.60;;;;;;;;;;5058351;28;20056;-76
2023/05/09 14:39:55;;;;;;;4.47;1.77;;;;;;;;;;5059149;28;20029;-76
2023/05/09 14:42:21;;;;;;;6.43;2.08;;;;;;;;;;5059023;28;20256;-76